M I D A S
Marine Information and Data Acquisition System
Tripno 1771 of the Zeeleeuw from 2009-09-07 06:59:02 to 2009-09-07 16:10:13
Back to CruiseResearch ActivitiesStationsMapUnderway DataData graphs

EquipmentUnitsComments
TimeDGPSUTC
LatitudeDGPSDM.mWGS84
LongitudeDGPSDM.mWGS84
SpeedMeteo Stationm/sRelative wind speed
DirectionMeteo StationdegRelative wind direction
TemperatureMeteo Stationdeg CelciusAir temperature
PressureMeteo StationPaAtmospheric pressure
HumidityMeteo Station%Relative humidity
Missing or incorrect values are displayed as -999
Metereological data collected by the RV Zeeleeuw from 2009-09-07 06:49:17 to 2009-09-07 18:52:51
                                                                                    Next 1000 lines
Time Latitude Longitude Speed Direction Temperature Pressure Humidity
2009-09-07 06:49:26 51°13.662 2°55.952 3 11 14.6 101960 42
2009-09-07 06:49:31 51°13.663 2°55.949 3.2 360 14.6 101960 42
2009-09-07 06:49:37 51°13.664 2°55.945 3.1 358 14.6 101960 42
2009-09-07 06:49:42 51°13.665 2°55.941 3.8 4 14.6 101960 42
2009-09-07 06:49:47 51°13.667 2°55.936 2.5 16 14.6 101960 41
2009-09-07 06:49:53 51°13.668 2°55.93 2.9 38 14.6 101960 41
2009-09-07 06:49:59 51°13.67 2°55.924 4.5 12 14.6 101960 42
2009-09-07 06:50:05 51°13.672 2°55.917 3.7 11 14.6 101960 42
2009-09-07 06:50:10 51°13.674 2°55.911 3.2 23 14.6 101970 42
2009-09-07 06:50:15 51°13.676 2°55.905 3.2 17 14.6 101970 42
2009-09-07 06:50:20 51°13.677 2°55.898 4.4 23 14.6 101960 42
2009-09-07 06:50:25 51°13.679 2°55.89 3.4 12 14.6 101960 42
2009-09-07 06:50:30 51°13.681 2°55.883 3.4 22 14.6 101970 42
2009-09-07 06:50:35 51°13.683 2°55.875 3.7 21 14.6 101970 42
2009-09-07 06:50:40 51°13.684 2°55.867 3.2 23 14.6 101970 41
2009-09-07 06:50:45 51°13.686 2°55.859 3 77 14.6 101970 41
2009-09-07 06:50:50 51°13.687 2°55.851 3.3 26 14.6 101960 42
2009-09-07 06:50:55 51°13.689 2°55.843 2 24 14.6 101960 42
2009-09-07 06:51:00 51°13.69 2°55.835 3.8 32 14.6 101960 41
2009-09-07 06:51:05 51°13.691 2°55.827 3 28 14.6 101960 41
2009-09-07 06:51:10 51°13.692 2°55.82 4.6 31 14.6 101960 42
2009-09-07 06:51:15 51°13.693 2°55.812 4.4 29 14.6 101960 42
2009-09-07 06:51:20 51°13.693 2°55.805 5.8 17 14.6 101960 40
2009-09-07 06:51:25 51°13.694 2°55.798 4.7 25 14.6 101960 40
2009-09-07 06:51:30 51°13.694 2°55.791 4.3 45 14.6 101960 41
2009-09-07 06:51:35 51°13.694 2°55.784 4.6 21 14.6 101960 41
2009-09-07 06:51:40 51°13.694 2°55.778 4.7 32 14.6 101960 41
2009-09-07 06:51:45 51°13.694 2°55.772 5 39 14.6 101960 41
2009-09-07 06:51:50 51°13.694 2°55.766 5.2 37 14.6 101960 41
2009-09-07 06:51:55 51°13.694 2°55.761 4.7 28 14.6 101960 41
2009-09-07 06:52:00 51°13.694 2°55.756 5.2 32 14.6 101960 39
2009-09-07 06:52:05 51°13.694 2°55.753 5.6 32 14.6 101960 39
2009-09-07 06:52:10 51°13.694 2°55.751 5.1 33 14.6 101960 42
2009-09-07 06:52:15 51°13.694 2°55.751 5 31 14.6 101960 42
2009-09-07 06:52:19 51°13.695 2°55.751 4.4 25 14.6 101960 42
2009-09-07 06:52:24 51°13.696 2°55.751 4.4 33 14.6 101960 42
2009-09-07 06:52:29 51°13.697 2°55.751 4.3 41 14.6 101960 40
2009-09-07 06:52:34 51°13.698 2°55.751 2.7 30 14.6 101960 40
2009-09-07 06:52:38 51°13.699 2°55.752 3.1 31 14.6 101960 42
2009-09-07 06:52:43 51°13.701 2°55.752 3.3 81 14.6 101960 42
2009-09-07 06:52:48 51°13.702 2°55.753 3.4 27 14.6 101960 40
2009-09-07 06:52:53 51°13.703 2°55.753 4.3 80 14.6 101960 40
2009-09-07 06:52:58 51°13.704 2°55.753 4.6 38 14.6 101960 42
2009-09-07 06:53:03 51°13.704 2°55.753 3 74 14.6 101960 42
2009-09-07 06:53:07 51°13.704 2°55.752 4.8 23 14.7 101960 40
2009-09-07 06:53:12 51°13.703 2°55.752 4.2 77 14.7 101960 40
2009-09-07 06:53:17 51°13.702 2°55.751 4.1 33 14.6 101960 41
2009-09-07 06:53:22 51°13.701 2°55.751 3.4 80 14.6 101960 41
2009-09-07 06:53:27 51°13.7 2°55.75 3.4 38 14.6 101960 40
2009-09-07 06:53:31 51°13.7 2°55.75 2.9 79 14.6 101960 40
2009-09-07 06:53:36 51°13.7 2°55.749 2.7 20 14.7 101960 41
2009-09-07 06:53:41 51°13.7 2°55.749 3 75 14.7 101960 41
2009-09-07 06:53:47 51°13.701 2°55.748 2.2 32 14.7 101960 42
2009-09-07 06:53:51 51°13.702 2°55.747 2.1 81 14.7 101960 42
2009-09-07 06:53:56 51°13.704 2°55.746 2 21 14.7 101960 42
2009-09-07 06:54:01 51°13.707 2°55.744 2.6 79 14.7 101960 42
2009-09-07 06:54:07 51°13.71 2°55.74 2.3 30 14.7 101960 39
2009-09-07 06:54:11 51°13.713 2°55.737 2.3 76 14.7 101960 39
2009-09-07 06:54:16 51°13.717 2°55.733 3 40 14.7 101960 42
2009-09-07 06:54:22 51°13.723 2°55.728 2.4 81 14.7 101960 42
2009-09-07 06:54:27 51°13.729 2°55.722 1.5 265 14.8 101960 40
2009-09-07 06:54:31 51°13.734 2°55.718 1.9 286 14.8 101960 40
2009-09-07 06:54:35 51°13.739 2°55.713 1.8 261 14.8 101960 40
2009-09-07 06:54:42 51°13.748 2°55.704 2.3 279 14.8 101960 40
2009-09-07 06:54:46 51°13.754 2°55.699 1.8 256 14.8 101960 42
2009-09-07 06:54:51 51°13.762 2°55.692 3.3 283 14.8 101960 42
2009-09-07 06:54:56 51°13.77 2°55.686 4.5 258 14.8 101960 40
2009-09-07 06:55:01 51°13.778 2°55.679 3.7 286 14.8 101960 40
2009-09-07 06:55:07 51°13.789 2°55.67 2.5 267 14.8 101960 40
2009-09-07 06:55:11 51°13.796 2°55.664 2.9 282 14.8 101960 40
2009-09-07 06:55:16 51°13.805 2°55.657 1.8 263 14.8 101960 42
2009-09-07 06:55:21 51°13.815 2°55.649 2 279 14.8 101960 42
2009-09-07 06:55:27 51°13.826 2°55.64 1.7 270 14.8 101950 40
2009-09-07 06:55:31 51°13.834 2°55.634 1.4 284 14.8 101950 40
2009-09-07 06:55:36 51°13.844 2°55.626 1.2 263 14.8 101950 40
2009-09-07 06:55:42 51°13.856 2°55.617 1.3 284 14.8 101950 40
2009-09-07 06:55:46 51°13.865 2°55.611 1.4 269 14.8 101960 40
2009-09-07 06:55:51 51°13.875 2°55.603 0.8 283 14.8 101960 40
2009-09-07 06:55:56 51°13.886 2°55.594 1.9 257 14.8 101960 40
2009-09-07 06:56:01 51°13.897 2°55.586 3.4 284 14.8 101960 40
2009-09-07 06:56:07 51°13.91 2°55.576 4.3 251 14.8 101950 41
2009-09-07 06:56:11 51°13.919 2°55.569 3.8 279 14.8 101950 41
2009-09-07 06:56:17 51°13.932 2°55.558 4.6 269 14.8 101960 39
2009-09-07 06:56:22 51°13.943 2°55.549 3.2 278 14.8 101960 39
2009-09-07 06:56:26 51°13.953 2°55.542 2.8 266 14.8 101950 40
2009-09-07 06:56:31 51°13.964 2°55.534 3.1 75 14.8 101950 40
2009-09-07 06:56:36 51°13.976 2°55.525 3 246 14.8 101960 41
2009-09-07 06:56:42 51°13.99 2°55.514 2.6 281 14.8 101960 41
2009-09-07 06:56:46 51°14 2°55.507 1.5 25 14.8 101950 40
2009-09-07 06:56:51 51°14.011 2°55.498 0.7 77 14.8 101950 40
2009-09-07 06:56:56 51°14.023 2°55.488 2 19 14.8 101950 41
2009-09-07 06:57:02 51°14.037 2°55.477 1.7 285 14.8 101950 41
2009-09-07 06:57:07 51°14.05 2°55.468 2.8 22 14.8 101950 40
2009-09-07 06:57:11 51°14.059 2°55.46 2.4 279 14.8 101950 40
2009-09-07 06:57:16 51°14.071 2°55.451 2.4 251 14.8 101950 39
2009-09-07 06:57:22 51°14.085 2°55.44 1.7 279 14.8 101950 39
2009-09-07 06:57:26 51°14.095 2°55.432 1.6 20 14.8 101950 42
2009-09-07 06:57:31 51°14.107 2°55.422 1.1 283 14.8 101950 42
2009-09-07 06:57:36 51°14.119 2°55.411 1.1 255 14.8 101950 41
2009-09-07 06:57:41 51°14.13 2°55.401 0.8 278 14.8 101950 41
2009-09-07 06:57:47 51°14.145 2°55.388 1.2 270 14.8 101950 40
2009-09-07 06:57:51 51°14.154 2°55.379 0.5 277 14.8 101950 40
2009-09-07 06:57:55 51°14.163 2°55.37 1.5 26 14.8 101950 40
2009-09-07 06:58:01 51°14.177 2°55.356 1.8 282 14.8 101950 40
2009-09-07 06:58:06 51°14.188 2°55.344 2 250 14.9 101950 41
2009-09-07 06:58:11 51°14.199 2°55.331 3 286 14.9 101950 41
2009-09-07 06:58:17 51°14.212 2°55.315 2.1 29 14.9 101950 40
2009-09-07 06:58:22 51°14.223 2°55.302 2.2 285 14.9 101950 40
2009-09-07 06:58:26 51°14.231 2°55.29 2.7 25 14.8 101940 41
2009-09-07 06:58:31 51°14.241 2°55.275 4.7 286 14.8 101940 41
2009-09-07 06:58:37 51°14.253 2°55.256 4.9 20 14.9 101940 41
2009-09-07 06:58:42 51°14.263 2°55.24 3.3 279 14.9 101940 41
2009-09-07 06:58:46 51°14.27 2°55.227 3.8 25 14.9 101940 40
2009-09-07 06:58:51 51°14.28 2°55.21 6.2 286 14.9 101940 40
2009-09-07 06:58:56 51°14.289 2°55.193 6.5 22 14.9 101950 41
2009-09-07 06:59:02 51°14.3 2°55.172 5.6 286 14.9 101950 41
2009-09-07 06:59:07 51°14.309 2°55.154 3.6 20 14.9 101940 40
2009-09-07 06:59:11 51°14.316 2°55.14 3.4 285 14.9 101940 40
2009-09-07 06:59:16 51°14.325 2°55.122 5 20 14.9 101940 40
2009-09-07 06:59:22 51°14.336 2°55.101 5.7 280 14.9 101940 40
2009-09-07 06:59:26 51°14.344 2°55.086 5.9 254 14.9 101940 40
2009-09-07 06:59:31 51°14.353 2°55.068 4.7 286 14.9 101940 40
2009-09-07 06:59:36 51°14.362 2°55.05 5.7 256 14.9 101930 40
2009-09-07 06:59:41 51°14.372 2°55.033 4.5 280 14.9 101930 40
2009-09-07 06:59:47 51°14.383 2°55.012 6.6 247 14.9 101930 41
2009-09-07 06:59:51 51°14.39 2°54.998 6.7 284 14.9 101930 41
2009-09-07 06:59:56 51°14.399 2°54.979 6.5 23 14.9 101930 40
2009-09-07 07:00:01 51°14.407 2°54.96 8.8 281 14.9 101930 40
2009-09-07 07:00:07 51°14.418 2°54.937 9.7 257 14.9 101940 40
2009-09-07 07:00:11 51°14.425 2°54.922 8.8 284 14.9 101940 40
2009-09-07 07:00:17 51°14.435 2°54.899 8 256 14.9 101930 40
2009-09-07 07:00:22 51°14.444 2°54.88 7.5 286 14.9 101930 40
2009-09-07 07:00:26 51°14.451 2°54.865 8.5 252 14.9 101920 40
2009-09-07 07:00:31 51°14.46 2°54.846 8 282 14.9 101920 40
2009-09-07 07:00:37 51°14.47 2°54.821 8 253 14.9 101930 40
2009-09-07 07:00:42 51°14.478 2°54.8 6.9 280 14.9 101930 40
2009-09-07 07:00:47 51°14.487 2°54.779 8.4 248 14.9 101930 40
2009-09-07 07:00:51 51°14.494 2°54.761 7.2 279 14.9 101930 40
2009-09-07 07:00:56 51°14.502 2°54.74 8.2 250 14.9 101930 40
2009-09-07 07:01:02 51°14.513 2°54.714 8.4 281 14.9 101930 40
2009-09-07 07:01:06 51°14.52 2°54.696 8.6 249 14.9 101930 40
2009-09-07 07:01:11 51°14.528 2°54.674 7.5 285 14.9 101930 40
2009-09-07 07:01:16 51°14.536 2°54.651 8.6 249 14.9 101930 40
2009-09-07 07:01:22 51°14.545 2°54.623 8.2 286 14.9 101930 40
2009-09-07 07:01:27 51°14.553 2°54.6 7.1 249 14.9 101920 41
2009-09-07 07:01:31 51°14.559 2°54.581 8.5 284 14.9 101920 41
2009-09-07 07:01:35 51°14.565 2°54.563 7.5 250 14.9 101920 40
2009-09-07 07:01:41 51°14.574 2°54.534 7.4 279 14.9 101920 40
2009-09-07 07:01:47 51°14.583 2°54.506 8.2 22 15 101930 41
2009-09-07 07:01:51 51°14.589 2°54.487 7.1 279 15 101930 41
2009-09-07 07:01:56 51°14.596 2°54.464 9.2 22 15 101920 40
2009-09-07 07:02:01 51°14.603 2°54.44 10.1 285 15 101920 40
2009-09-07 07:02:07 51°14.612 2°54.412 9.6 250 15 101930 40
2009-09-07 07:02:11 51°14.618 2°54.393 10.7 282 15 101930 40
2009-09-07 07:02:16 51°14.625 2°54.369 11.6 253 15 101930 40
2009-09-07 07:02:22 51°14.634 2°54.34 11.2 286 15 101930 40
2009-09-07 07:02:27 51°14.641 2°54.317 9.2 250 15 101920 41
2009-09-07 07:02:32 51°14.648 2°54.293 8.8 281 15 101920 41
2009-09-07 07:02:36 51°14.654 2°54.274 7 250 15 101930 39
2009-09-07 07:02:42 51°14.663 2°54.246 7.6 278 15 101930 39
2009-09-07 07:02:46 51°14.669 2°54.227 7.9 24 15 101930 40
2009-09-07 07:02:51 51°14.676 2°54.204 7.8 279 15 101930 40
2009-09-07 07:02:56 51°14.683 2°54.18 8.3 250 15 101940 41
2009-09-07 07:03:01 51°14.691 2°54.157 8.6 284 15 101940 41
2009-09-07 07:03:07 51°14.7 2°54.129 9.2 251 15 101920 41
2009-09-07 07:03:11 51°14.706 2°54.11 7.5 278 15 101920 41
2009-09-07 07:03:15 51°14.711 2°54.092 9.5 249 15.1 101920 40
2009-09-07 07:03:22 51°14.722 2°54.059 9.2 281 15.1 101920 40
2009-09-07 07:03:26 51°14.728 2°54.04 7.7 251 15.1 101920 40
2009-09-07 07:03:31 51°14.736 2°54.017 7.8 282 15.1 101920 40
2009-09-07 07:03:36 51°14.743 2°53.994 7 250 15.1 101920 41
2009-09-07 07:03:42 51°14.752 2°53.966 7.9 279 15.1 101920 41
2009-09-07 07:03:47 51°14.759 2°53.943 9.4 22 15.1 101930 40
2009-09-07 07:03:51 51°14.765 2°53.924 8.7 280 15.1 101930 40
2009-09-07 07:03:56 51°14.772 2°53.901 8 251 15.1 101920 41
2009-09-07 07:04:01 51°14.779 2°53.878 8.4 283 15.1 101920 41
2009-09-07 07:04:07 51°14.787 2°53.849 7.9 249 15.1 101920 41
2009-09-07 07:04:11 51°14.793 2°53.831 8.4 282 15.1 101920 41
2009-09-07 07:04:16 51°14.799 2°53.806 8.3 24 15.1 101920 41
2009-09-07 07:04:22 51°14.806 2°53.777 9.5 280 15.1 101920 41
2009-09-07 07:04:26 51°14.811 2°53.758 8.9 246 15.1 101920 41
2009-09-07 07:04:31 51°14.816 2°53.734 8.9 286 15.1 101920 41
2009-09-07 07:04:36 51°14.822 2°53.709 8.3 24 15.1 101930 41
2009-09-07 07:04:41 51°14.827 2°53.684 8.1 280 15.1 101930 41
2009-09-07 07:04:47 51°14.834 2°53.654 8.9 241 15.1 101910 40
2009-09-07 07:04:51 51°14.838 2°53.634 10.7 277 15.1 101910 40
2009-09-07 07:04:56 51°14.843 2°53.61 9.8 27 15.1 101920 42
2009-09-07 07:05:01 51°14.848 2°53.585 9.7 283 15.1 101920 42
2009-09-07 07:05:07 51°14.854 2°53.555 8.5 23 15.2 101930 42
2009-09-07 07:05:11 51°14.859 2°53.535 9.4 279 15.2 101930 42
2009-09-07 07:05:17 51°14.865 2°53.505 9.5 25 15.2 101930 39
2009-09-07 07:05:22 51°14.87 2°53.48 9.3 283 15.2 101930 39
2009-09-07 07:05:26 51°14.874 2°53.46 9.3 246 15.2 101920 41
2009-09-07 07:05:31 51°14.88 2°53.435 9.8 279 15.2 101920 41
2009-09-07 07:05:37 51°14.886 2°53.405 10.3 22 15.2 101930 42
2009-09-07 07:05:42 51°14.891 2°53.381 9 285 15.2 101930 42
2009-09-07 07:05:47 51°14.896 2°53.355 9.7 242 15.2 101920 40
2009-09-07 07:05:51 51°14.901 2°53.336 10.7 286 15.2 101920 40
2009-09-07 07:05:56 51°14.906 2°53.311 8.7 27 15.2 101920 41
2009-09-07 07:06:02 51°14.912 2°53.281 8.3 279 15.2 101920 41
2009-09-07 07:06:06 51°14.916 2°53.261 8.7 25 15.2 101930 42
2009-09-07 07:06:11 51°14.922 2°53.236 8.6 285 15.2 101930 42
2009-09-07 07:06:16 51°14.927 2°53.211 9.6 25 15.2 101920 42
2009-09-07 07:06:21 51°14.932 2°53.187 8.8 285 15.2 101920 42
2009-09-07 07:06:27 51°14.939 2°53.157 9.4 22 15.2 101930 41
2009-09-07 07:06:31 51°14.943 2°53.137 11.1 287 15.2 101930 41
2009-09-07 07:06:35 51°14.947 2°53.117 8.8 26 15.2 101930 41
2009-09-07 07:06:41 51°14.954 2°53.087 7.9 281 15.2 101930 41
2009-09-07 07:06:47 51°14.96 2°53.057 8.6 20 15.2 101930 41
2009-09-07 07:06:51 51°14.965 2°53.037 8.5 278 15.2 101930 41
2009-09-07 07:06:57 51°14.971 2°53.008 7.6 244 15.1 101920 41
2009-09-07 07:07:02 51°14.977 2°52.983 9.6 284 15.1 101920 41
2009-09-07 07:07:06 51°14.981 2°52.963 9 244 15.2 101930 41
2009-09-07 07:07:11 51°14.987 2°52.938 8 284 15.2 101930 41
2009-09-07 07:07:17 51°14.994 2°52.909 8 25 15.2 101930 41
2009-09-07 07:07:22 51°15 2°52.884 8.7 281 15.2 101930 41
2009-09-07 07:07:27 51°15.006 2°52.859 11 243 15.2 101930 40
2009-09-07 07:07:31 51°15.011 2°52.839 9 282 15.2 101930 40
2009-09-07 07:07:36 51°15.017 2°52.815 10.6 25 15.2 101930 42
2009-09-07 07:07:42 51°15.024 2°52.785 10.6 282 15.2 101930 42
2009-09-07 07:07:46 51°15.029 2°52.766 10.4 25 15.2 101920 42
2009-09-07 07:07:51 51°15.035 2°52.741 10.5 285 15.2 101920 42
2009-09-07 07:07:57 51°15.042 2°52.711 10.4 24 15.2 101930 40
2009-09-07 07:08:02 51°15.048 2°52.686 8.5 280 15.2 101930 40
2009-09-07 07:08:07 51°15.054 2°52.661 8.5 24 15.2 101920 41
2009-09-07 07:08:11 51°15.058 2°52.641 10.7 286 15.2 101920 41
2009-09-07 07:08:15 51°15.062 2°52.621 8.7 27 15.2 101930 41
2009-09-07 07:08:22 51°15.07 2°52.586 9.8 280 15.2 101930 41
2009-09-07 07:08:27 51°15.075 2°52.56 10 23 15.2 101930 42
2009-09-07 07:08:31 51°15.08 2°52.54 9 282 15.2 101930 42
2009-09-07 07:08:36 51°15.085 2°52.515 9.5 23 15.1 101920 42
2009-09-07 07:08:41 51°15.09 2°52.49 7.7 279 15.1 101920 42
2009-09-07 07:08:47 51°15.097 2°52.46 8.2 25 15.1 101930 41
2009-09-07 07:08:51 51°15.102 2°52.44 10.3 285 15.1 101930 41
2009-09-07 07:08:56 51°15.107 2°52.415 8.1 244 15.1 101920 41
2009-09-07 07:09:02 51°15.114 2°52.385 8.6 286 15.1 101920 41
2009-09-07 07:09:06 51°15.119 2°52.365 8.2 26 15.1 101930 41
2009-09-07 07:09:11 51°15.125 2°52.34 9.1 286 15.1 101930 41
2009-09-07 07:09:16 51°15.132 2°52.316 10.2 22 15.1 101930 42
2009-09-07 07:09:22 51°15.139 2°52.286 8.6 286 15.1 101930 42
2009-09-07 07:09:26 51°15.144 2°52.266 8.5 247 15.1 101930 41
2009-09-07 07:09:31 51°15.15 2°52.241 8.5 284 15.1 101930 41
2009-09-07 07:09:36 51°15.157 2°52.217 7.8 23 15.1 101920 41
2009-09-07 07:09:41 51°15.163 2°52.192 7.9 283 15.1 101920 41
2009-09-07 07:09:47 51°15.171 2°52.163 9.4 20 15.1 101930 41
2009-09-07 07:09:51 51°15.177 2°52.143 8.3 283 15.1 101930 41
2009-09-07 07:09:57 51°15.185 2°52.113 8.5 23 15.1 101920 41
2009-09-07 07:10:02 51°15.192 2°52.089 7.8 278 15.1 101920 41
2009-09-07 07:10:06 51°15.197 2°52.069 9.4 22 15.1 101920 41
2009-09-07 07:10:11 51°15.204 2°52.044 9.1 281 15.1 101920 41
2009-09-07 07:10:16 51°15.21 2°52.02 9.2 246 15.1 101930 41
2009-09-07 07:10:22 51°15.219 2°51.99 9.7 281 15.1 101930 41
2009-09-07 07:10:27 51°15.225 2°51.965 9.7 20 15.2 101930 42
2009-09-07 07:10:31 51°15.231 2°51.945 9.4 279 15.2 101930 42
2009-09-07 07:10:36 51°15.237 2°51.921 9.7 244 15.2 101930 40
2009-09-07 07:10:41 51°15.243 2°51.897 9.7 280 15.2 101930 40
2009-09-07 07:10:47 51°15.25 2°51.865 8.8 21 15.2 101930 41
2009-09-07 07:10:51 51°15.255 2°51.845 9 281 15.2 101930 41
2009-09-07 07:10:56 51°15.26 2°51.819 10.2 20 15.1 101920 42
2009-09-07 07:11:02 51°15.266 2°51.788 10.4 280 15.1 101920 42
2009-09-07 07:11:06 51°15.269 2°51.767 10.5 27 15.1 101920 42
2009-09-07 07:11:11 51°15.272 2°51.741 9.9 280 15.1 101920 42
2009-09-07 07:11:16 51°15.276 2°51.714 11.2 28 15.2 101930 42
2009-09-07 07:11:21 51°15.279 2°51.687 9.9 281 15.2 101930 42
2009-09-07 07:11:27 51°15.282 2°51.655 12.3 236 15.2 101920 41
2009-09-07 07:11:31 51°15.283 2°51.634 10.3 279 15.2 101920 41
2009-09-07 07:11:37 51°15.286 2°51.602 10 23 15.2 101930 41
2009-09-07 07:11:42 51°15.288 2°51.575 11.3 278 15.2 101930 41
2009-09-07 07:11:46 51°15.289 2°51.553 9.7 26 15.1 101920 42
2009-09-07 07:11:51 51°15.291 2°51.526 10.7 281 15.1 101920 42
2009-09-07 07:11:57 51°15.292 2°51.493 11.5 27 15.1 101920 42
2009-09-07 07:12:02 51°15.294 2°51.466 11.8 284 15.1 101920 42
2009-09-07 07:12:07 51°15.295 2°51.439 10.3 21 15.1 101920 41
2009-09-07 07:12:11 51°15.296 2°51.417 11.3 283 15.1 101920 41
2009-09-07 07:12:16 51°15.298 2°51.389 10.9 20 15.1 101910 42
2009-09-07 07:12:22 51°15.299 2°51.357 10.7 282 15.1 101910 42
2009-09-07 07:12:26 51°15.301 2°51.335 11.8 27 15.1 101920 42
2009-09-07 07:12:31 51°15.302 2°51.307 10.2 282 15.1 101920 42
2009-09-07 07:12:36 51°15.304 2°51.28 10.3 236 15.1 101900 41
2009-09-07 07:12:42 51°15.306 2°51.247 9.3 283 15.1 101900 41
2009-09-07 07:12:47 51°15.307 2°51.22 9.5 23 15.1 101910 42
2009-09-07 07:12:51 51°15.308 2°51.198 10.7 285 15.1 101910 42
2009-09-07 07:12:56 51°15.31 2°51.171 10.4 28 15.1 101910 42
2009-09-07 07:13:01 51°15.311 2°51.144 10.5 277 15.1 101910 42
2009-09-07 07:13:07 51°15.313 2°51.111 11.3 21 15.2 101910 42
2009-09-07 07:13:11 51°15.314 2°51.089 10.3 279 15.2 101910 42
2009-09-07 07:13:15 51°15.315 2°51.067 10.2 26 15.2 101910 41
2009-09-07 07:13:21 51°15.317 2°51.034 10.8 279 15.2 101910 41
2009-09-07 07:13:27 51°15.319 2°51.001 9.8 26 15.2 101910 41
2009-09-07 07:13:31 51°15.32 2°50.979 11.7 282 15.2 101910 41
2009-09-07 07:13:37 51°15.322 2°50.947 10.7 24 15.1 101900 41
2009-09-07 07:13:42 51°15.324 2°50.919 10.4 286 15.1 101900 41
2009-09-07 07:13:46 51°15.325 2°50.898 10.6 25 15.1 101910 41
2009-09-07 07:13:52 51°15.327 2°50.865 10.1 278 15.1 101910 41
2009-09-07 07:13:56 51°15.328 2°50.843 10.4 27 15.1 101910 42
2009-09-07 07:14:02 51°15.33 2°50.81 10.2 285 15.1 101910 42
2009-09-07 07:14:06 51°15.331 2°50.788 10.1 21 15.1 101910 42
2009-09-07 07:14:12 51°15.333 2°50.756 13.1 278 15.1 101910 42
2009-09-07 07:14:16 51°15.334 2°50.734 11.6 27 15.1 101900 41
2009-09-07 07:14:22 51°15.336 2°50.701 11.5 281 15.1 101900 41
2009-09-07 07:14:26 51°15.338 2°50.679 10.8 22 15.1 101910 42
2009-09-07 07:14:31 51°15.339 2°50.652 9.8 281 15.1 101910 42
2009-09-07 07:14:37 51°15.341 2°50.619 10.5 24 15.1 101900 42
2009-09-07 07:14:42 51°15.343 2°50.591 11.4 281 15.1 101900 42
2009-09-07 07:14:47 51°15.344 2°50.564 10.4 21 15.1 101910 41
2009-09-07 07:14:51 51°15.346 2°50.542 9.3 280 15.1 101910 41
2009-09-07 07:14:55 51°15.347 2°50.52 11.2 28 15.1 101910 42
2009-09-07 07:15:02 51°15.349 2°50.482 9.1 283 15.1 101910 42
2009-09-07 07:15:07 51°15.351 2°50.455 10.6 24 15.1 101910 42
2009-09-07 07:15:11 51°15.352 2°50.433 10.1 285 15.1 101910 42
2009-09-07 07:15:16 51°15.354 2°50.406 10.8 28 15.1 101910 42
2009-09-07 07:15:21 51°15.356 2°50.378 10.4 280 15.1 101910 42
2009-09-07 07:15:27 51°15.358 2°50.345 11.4 25 15.1 101920 42
2009-09-07 07:15:31 51°15.359 2°50.323 11.1 283 15.1 101920 42
2009-09-07 07:15:36 51°15.361 2°50.296 9.7 25 15.1 101910 41
2009-09-07 07:15:41 51°15.363 2°50.268 9.8 279 15.1 101910 41
2009-09-07 07:15:47 51°15.365 2°50.235 9.6 26 15.1 101910 42
2009-09-07 07:15:51 51°15.366 2°50.214 8.8 280 15.1 101910 42
2009-09-07 07:15:56 51°15.368 2°50.186 10.5 27 15.1 101910 41
2009-09-07 07:16:02 51°15.37 2°50.153 9.4 278 15.1 101910 41
2009-09-07 07:16:06 51°15.372 2°50.132 10.4 25 15.1 101920 42
2009-09-07 07:16:11 51°15.375 2°50.104 9.5 286 15.1 101920 42
2009-09-07 07:16:17 51°15.378 2°50.072 10.6 21 15.1 101910 42
2009-09-07 07:16:22 51°15.38 2°50.045 9.7 281 15.1 101910 42
2009-09-07 07:16:26 51°15.382 2°50.023 10.4 24 15.2 101920 42
2009-09-07 07:16:31 51°15.385 2°49.996 9.5 285 15.2 101920 42
2009-09-07 07:16:37 51°15.389 2°49.963 9.5 26 15.2 101910 43
2009-09-07 07:16:42 51°15.391 2°49.936 9.3 281 15.2 101910 43
2009-09-07 07:16:46 51°15.394 2°49.915 9.5 22 15.2 101910 42
2009-09-07 07:16:51 51°15.397 2°49.888 10 282 15.2 101910 42
2009-09-07 07:16:57 51°15.401 2°49.856 9.6 25 15.2 101920 42
2009-09-07 07:17:02 51°15.404 2°49.829 9.9 281 15.2 101920 42
2009-09-07 07:17:06 51°15.406 2°49.807 11.4 22 15.2 101920 42
2009-09-07 07:17:11 51°15.409 2°49.78 11.2 279 15.2 101920 42
2009-09-07 07:17:16 51°15.412 2°49.753 10.1 22 15.2 101920 42
2009-09-07 07:17:22 51°15.416 2°49.721 9.5 285 15.2 101920 42
2009-09-07 07:17:27 51°15.419 2°49.694 12.2 21 15.2 101920 42
2009-09-07 07:17:31 51°15.421 2°49.672 10.6 286 15.2 101920 42
2009-09-07 07:17:36 51°15.424 2°49.645 9.9 27 15.2 101920 42
2009-09-07 07:17:42 51°15.428 2°49.613 9.7 284 15.2 101920 42
2009-09-07 07:17:46 51°15.43 2°49.592 10.2 25 15.2 101920 43
2009-09-07 07:17:51 51°15.433 2°49.565 10 284 15.2 101920 43
2009-09-07 07:17:56 51°15.437 2°49.538 11.8 23 15.2 101910 43
2009-09-07 07:18:01 51°15.44 2°49.511 9.6 279 15.2 101910 43
2009-09-07 07:18:07 51°15.444 2°49.479 10.2 27 15.2 101910 42
2009-09-07 07:18:11 51°15.446 2°49.457 11.1 280 15.2 101910 42
2009-09-07 07:18:17 51°15.45 2°49.425 9.8 22 15.2 101910 42
2009-09-07 07:18:22 51°15.453 2°49.398 9.8 282 15.2 101910 42
2009-09-07 07:18:26 51°15.456 2°49.377 10.3 25 15.2 101920 43
2009-09-07 07:18:31 51°15.459 2°49.35 10.5 282 15.2 101920 43
2009-09-07 07:18:37 51°15.463 2°49.318 9.7 23 15.2 101910 40
2009-09-07 07:18:42 51°15.467 2°49.291 10.1 286 15.2 101910 40
2009-09-07 07:18:46 51°15.469 2°49.27 10.7 24 15.2 101910 42
2009-09-07 07:18:51 51°15.473 2°49.243 9.3 285 15.2 101910 42
2009-09-07 07:18:57 51°15.477 2°49.211 9.7 26 15.2 101910 43
2009-09-07 07:19:02 51°15.48 2°49.184 10 277 15.2 101910 43
2009-09-07 07:19:07 51°15.484 2°49.157 9.1 242 15.3 101910 42
2009-09-07 07:19:11 51°15.486 2°49.136 9.3 283 15.3 101910 42
2009-09-07 07:19:16 51°15.49 2°49.109 11.1 22 15.3 101910 42
2009-09-07 07:19:22 51°15.494 2°49.077 10.6 278 15.3 101910 42
2009-09-07 07:19:26 51°15.496 2°49.056 9.9 26 15.3 101910 43
2009-09-07 07:19:31 51°15.5 2°49.029 10.5 285 15.3 101910 43
2009-09-07 07:19:36 51°15.503 2°49.002 10.2 22 15.3 101910 43
2009-09-07 07:19:42 51°15.507 2°48.97 11.5 284 15.3 101910 43
2009-09-07 07:19:47 51°15.51 2°48.944 11.4 24 15.3 101910 43
2009-09-07 07:19:51 51°15.512 2°48.922 9.8 279 15.3 101910 43
2009-09-07 07:19:56 51°15.515 2°48.896 9.8 245 15.3 101910 42
2009-09-07 07:20:01 51°15.518 2°48.869 10.7 286 15.3 101910 42
2009-09-07 07:20:07 51°15.522 2°48.837 11.1 22 15.3 101900 42
2009-09-07 07:20:11 51°15.524 2°48.816 11.4 278 15.3 101900 42
2009-09-07 07:20:15 51°15.527 2°48.795 11.2 21 15.3 101910 42
2009-09-07 07:20:22 51°15.53 2°48.757 10.8 279 15.3 101910 42
2009-09-07 07:20:26 51°15.533 2°48.736 10.1 25 15.3 101900 42
2009-09-07 07:20:31 51°15.536 2°48.709 9.3 283 15.3 101900 42
2009-09-07 07:20:37 51°15.539 2°48.678 11.2 22 15.3 101900 43
2009-09-07 07:20:42 51°15.543 2°48.651 11.9 284 15.3 101900 43
2009-09-07 07:20:46 51°15.545 2°48.63 10.2 26 15.4 101910 42
2009-09-07 07:20:52 51°15.549 2°48.598 9.7 281 15.4 101910 42
2009-09-07 07:20:56 51°15.552 2°48.577 10.3 23 15.3 101900 42
2009-09-07 07:21:02 51°15.556 2°48.545 10 280 15.3 101900 42
2009-09-07 07:21:06 51°15.559 2°48.524 12.6 27 15.3 101910 42
2009-09-07 07:21:11 51°15.562 2°48.498 11.5 282 15.3 101910 42
2009-09-07 07:21:17 51°15.566 2°48.466 11.9 23 15.4 101910 41
2009-09-07 07:21:22 51°15.569 2°48.439 12 278 15.4 101910 41
2009-09-07 07:21:27 51°15.573 2°48.413 10.5 22 15.4 101910 43
2009-09-07 07:21:31 51°15.575 2°48.391 10.5 284 15.4 101910 43
2009-09-07 07:21:35 51°15.578 2°48.37 12.2 23 15.4 101910 42
2009-09-07 07:21:42 51°15.582 2°48.333 11.9 284 15.4 101910 42
2009-09-07 07:21:47 51°15.586 2°48.306 10.7 23 15.4 101900 43
2009-09-07 07:21:51 51°15.589 2°48.285 10.2 279 15.4 101900 43
2009-09-07 07:21:56 51°15.592 2°48.258 9.9 28 15.4 101910 42
2009-09-07 07:22:02 51°15.596 2°48.226 11.5 283 15.4 101910 42
2009-09-07 07:22:07 51°15.599 2°48.199 11.3 26 15.4 101900 43
2009-09-07 07:22:11 51°15.601 2°48.178 11.8 278 15.4 101900 43
2009-09-07 07:22:16 51°15.604 2°48.151 12.4 22 15.4 101900 43
2009-09-07 07:22:21 51°15.607 2°48.124 11.7 279 15.4 101900 43
2009-09-07 07:22:27 51°15.61 2°48.092 11.5 27 15.4 101900 42
2009-09-07 07:22:31 51°15.612 2°48.071 12.2 286 15.4 101900 42
2009-09-07 07:22:36 51°15.615 2°48.044 12.5 23 15.4 101900 42
2009-09-07 07:22:42 51°15.619 2°48.012 11.8 285 15.4 101900 42
2009-09-07 07:22:47 51°15.622 2°47.986 11 24 15.4 101900 43
2009-09-07 07:22:51 51°15.624 2°47.964 10.8 280 15.4 101900 43
2009-09-07 07:22:56 51°15.627 2°47.938 11.7 22 15.4 101900 43
2009-09-07 07:23:01 51°15.63 2°47.911 10.5 279 15.4 101900 43
2009-09-07 07:23:07 51°15.634 2°47.879 11.4 238 15.4 101900 42
2009-09-07 07:23:11 51°15.636 2°47.857 12.9 282 15.4 101900 42
2009-09-07 07:23:17 51°15.64 2°47.825 12.9 23 15.4 101910 42
2009-09-07 07:23:22 51°15.642 2°47.798 12.4 283 15.4 101910 42
2009-09-07 07:23:26 51°15.645 2°47.777 12.3 25 15.4 101900 43
2009-09-07 07:23:31 51°15.648 2°47.75 10.6 282 15.4 101900 43
2009-09-07 07:23:37 51°15.651 2°47.718 10.3 27 15.4 101900 42
2009-09-07 07:23:42 51°15.654 2°47.691 10.1 280 15.4 101900 42
2009-09-07 07:23:46 51°15.656 2°47.67 11.6 23 15.4 101900 42
2009-09-07 07:23:51 51°15.66 2°47.643 11.7 282 15.4 101900 42
2009-09-07 07:23:57 51°15.664 2°47.611 10.5 27 15.4 101910 41
2009-09-07 07:24:02 51°15.667 2°47.584 10.3 284 15.4 101910 41
2009-09-07 07:24:07 51°15.671 2°47.557 10.5 28 15.4 101910 43
2009-09-07 07:24:11 51°15.673 2°47.536 12 280 15.4 101910 43
2009-09-07 07:24:16 51°15.677 2°47.509 11.2 24 15.4 101900 42
2009-09-07 07:24:22 51°15.681 2°47.477 10.3 282 15.4 101900 42
2009-09-07 07:24:26 51°15.684 2°47.456 10.9 27 15.4 101910 42
2009-09-07 07:24:31 51°15.688 2°47.429 12.1 281 15.4 101910 42
2009-09-07 07:24:36 51°15.692 2°47.402 9.9 24 15.5 101910 42
2009-09-07 07:24:41 51°15.695 2°47.375 10.6 283 15.5 101910 42
2009-09-07 07:24:47 51°15.7 2°47.343 11.4 22 15.5 101900 43
2009-09-07 07:24:51 51°15.702 2°47.322 11 285 15.5 101900 43
2009-09-07 07:24:55 51°15.705 2°47.3 12.3 27 15.5 101910 43
2009-09-07 07:25:02 51°15.71 2°47.262 10.4 281 15.5 101910 43
2009-09-07 07:25:06 51°15.713 2°47.241 10.2 24 15.5 101910 42
2009-09-07 07:25:11 51°15.717 2°47.214 10.4 282 15.5 101910 42
2009-09-07 07:25:17 51°15.721 2°47.182 10.6 26 15.5 101910 42
2009-09-07 07:25:22 51°15.724 2°47.155 11.3 282 15.5 101910 42
2009-09-07 07:25:26 51°15.727 2°47.134 10.5 23 15.5 101900 43
2009-09-07 07:25:31 51°15.731 2°47.107 12.2 281 15.5 101900 43
2009-09-07 07:25:37 51°15.735 2°47.074 11.9 22 15.5 101900 42
2009-09-07 07:25:42 51°15.738 2°47.047 11.2 282 15.5 101900 42
2009-09-07 07:25:47 51°15.741 2°47.02 12.1 22 15.5 101910 42
2009-09-07 07:25:51 51°15.744 2°46.999 11.5 284 15.5 101910 42
2009-09-07 07:25:56 51°15.748 2°46.972 10.2 27 15.5 101910 42
2009-09-07 07:26:02 51°15.752 2°46.939 10.7 277 15.5 101910 42
2009-09-07 07:26:06 51°15.755 2°46.918 10.8 28 15.5 101910 42
2009-09-07 07:26:11 51°15.759 2°46.891 10.2 283 15.5 101910 42
2009-09-07 07:26:16 51°15.762 2°46.864 11 25 15.5 101910 42
2009-09-07 07:26:22 51°15.767 2°46.832 10.4 282 15.5 101910 42
2009-09-07 07:26:27 51°15.771 2°46.805 11.6 23 15.5 101910 43
2009-09-07 07:26:31 51°15.775 2°46.784 10.6 281 15.5 101910 43
2009-09-07 07:26:35 51°15.778 2°46.762 11.6 23 15.5 101910 40
2009-09-07 07:26:41 51°15.783 2°46.73 10.6 283 15.5 101910 40
2009-09-07 07:26:47 51°15.788 2°46.698 10.1 25 15.5 101900 42
2009-09-07 07:26:51 51°15.791 2°46.676 9.6 278 15.5 101900 42
2009-09-07 07:26:56 51°15.795 2°46.649 11.9 25 15.6 101900 42
2009-09-07 07:27:02 51°15.8 2°46.617 10 278 15.6 101900 42
2009-09-07 07:27:07 51°15.804 2°46.591 10.4 243 15.6 101900 42
2009-09-07 07:27:11 51°15.808 2°46.569 11.1 285 15.6 101900 42
2009-09-07 07:27:16 51°15.813 2°46.543 10.2 23 15.6 101910 42
2009-09-07 07:27:22 51°15.819 2°46.512 9.9 282 15.6 101910 42
2009-09-07 07:27:26 51°15.824 2°46.491 10.1 22 15.6 101900 43
2009-09-07 07:27:31 51°15.829 2°46.465 9.3 285 15.6 101900 43
2009-09-07 07:27:36 51°15.835 2°46.44 10 25 15.6 101910 42
2009-09-07 07:27:41 51°15.841 2°46.414 9.7 279 15.6 101910 42
2009-09-07 07:27:47 51°15.848 2°46.383 9.3 244 15.6 101910 41
2009-09-07 07:27:51 51°15.853 2°46.363 9.9 282 15.6 101910 41
2009-09-07 07:27:57 51°15.86 2°46.332 11.5 24 15.6 101910 42
2009-09-07 07:28:02 51°15.867 2°46.307 9.9 284 15.6 101910 42
2009-09-07 07:28:07 51°15.873 2°46.281 9.8 20 15.6 101910 42
2009-09-07 07:28:11 51°15.878 2°46.261 9.9 277 15.6 101910 42
2009-09-07 07:28:17 51°15.885 2°46.23 4.4 20 15.6 101910 42
2009-09-07 07:28:22 51°15.89 2°46.204 10.8 284 15.6 101910 42
2009-09-07 07:28:26 51°15.895 2°46.184 9.2 27 15.6 101910 41
2009-09-07 07:28:31 51°15.901 2°46.158 9.5 277 15.6 101910 41
2009-09-07 07:28:36 51°15.907 2°46.132 10.8 245 15.6 101910 42
2009-09-07 07:28:42 51°15.915 2°46.102 11 282 15.6 101910 42
2009-09-07 07:28:47 51°15.921 2°46.077 10.6 19 15.7 101910 42
2009-09-07 07:28:51 51°15.925 2°46.056 9.4 278 15.7 101910 42
2009-09-07 07:28:56 51°15.932 2°46.031 11.3 25 15.7 101910 42
2009-09-07 07:29:02 51°15.939 2°46.001 9.9 284 15.7 101910 42
2009-09-07 07:29:06 51°15.944 2°45.981 10.4 246 15.7 101910 41
2009-09-07 07:29:11 51°15.951 2°45.955 9.6 281 15.7 101910 41
2009-09-07 07:29:16 51°15.957 2°45.93 9.1 19 15.7 101910 41
2009-09-07 07:29:22 51°15.965 2°45.9 10.2 279 15.7 101910 41
2009-09-07 07:29:27 51°15.97 2°45.875 9.3 244 15.7 101920 42
2009-09-07 07:29:31 51°15.975 2°45.855 9.8 280 15.7 101920 42
2009-09-07 07:29:36 51°15.981 2°45.83 8.9 244 15.7 101910 42
2009-09-07 07:29:41 51°15.987 2°45.805 10.3 282 15.7 101910 42
2009-09-07 07:29:47 51°15.995 2°45.775 9.5 245 15.8 101910 42
2009-09-07 07:29:51 51°16 2°45.755 8.5 283 15.8 101910 42
2009-09-07 07:29:57 51°16.008 2°45.726 8.7 21 15.8 101920 42
2009-09-07 07:30:02 51°16.015 2°45.702 8.3 283 15.8 101920 42
2009-09-07 07:30:06 51°16.02 2°45.682 9.2 246 15.8 101910 42
2009-09-07 07:30:11 51°16.027 2°45.658 10.1 278 15.8 101910 42
2009-09-07 07:30:17 51°16.035 2°45.629 10.6 21 15.8 101920 42
2009-09-07 07:30:22 51°16.042 2°45.605 9.9 278 15.8 101920 42
2009-09-07 07:30:26 51°16.047 2°45.586 9.6 22 15.8 101910 41
2009-09-07 07:30:31 51°16.054 2°45.561 10.2 281 15.8 101910 41
2009-09-07 07:30:37 51°16.063 2°45.533 10.4 24 15.8 101910 42
2009-09-07 07:30:42 51°16.07 2°45.508 10.7 280 15.8 101910 42
2009-09-07 07:30:47 51°16.077 2°45.485 9.4 248 15.8 101920 42
2009-09-07 07:30:51 51°16.082 2°45.465 9.1 277 15.8 101920 42
2009-09-07 07:30:56 51°16.09 2°45.442 9.5 247 15.8 101910 42
2009-09-07 07:31:02 51°16.098 2°45.413 8.8 285 15.8 101910 42
2009-09-07 07:31:06 51°16.104 2°45.394 9.2 247 15.8 101920 42
2009-09-07 07:31:11 51°16.111 2°45.369 9.1 280 15.8 101920 42
2009-09-07 07:31:15 51°16.116 2°45.35 8.5 20 15.8 101920 42
2009-09-07 07:31:22 51°16.126 2°45.317 8.9 279 15.8 101920 42
2009-09-07 07:31:27 51°16.134 2°45.293 9.1 245 15.8 101920 42
2009-09-07 07:31:31 51°16.14 2°45.274 9.2 283 15.8 101920 42
2009-09-07 07:31:36 51°16.147 2°45.251 9.6 26 15.8 101910 42
2009-09-07 07:31:42 51°16.157 2°45.223 8.7 283 15.8 101910 42
2009-09-07 07:31:47 51°16.165 2°45.2 9 22 15.8 101920 42
2009-09-07 07:31:51 51°16.172 2°45.183 9.2 279 15.8 101920 42
2009-09-07 07:31:57 51°16.183 2°45.156 8.1 252 15.8 101920 40
2009-09-07 07:32:02 51°16.192 2°45.135 8 285 15.8 101920 40
2009-09-07 07:32:06 51°16.2 2°45.118 10 250 15.8 101920 42
2009-09-07 07:32:11 51°16.209 2°45.097 8.9 278 15.8 101920 42
2009-09-07 07:32:17 51°16.221 2°45.072 7.9 250 15.8 101920 41
2009-09-07 07:32:22 51°16.231 2°45.052 8.2 280 15.8 101920 41
2009-09-07 07:32:27 51°16.24 2°45.031 8.2 252 15.8 101930 41
2009-09-07 07:32:31 51°16.249 2°45.015 9 278 15.8 101930 41
2009-09-07 07:32:36 51°16.259 2°44.995 8.6 249 15.9 101930 42
2009-09-07 07:32:42 51°16.271 2°44.971 9 284 15.9 101930 42
2009-09-07 07:32:46 51°16.279 2°44.955 10 253 15.8 101930 41
2009-09-07 07:32:51 51°16.289 2°44.936 9.1 280 15.8 101930 41
2009-09-07 07:32:57 51°16.301 2°44.912 8.7 247 15.9 101930 41
2009-09-07 07:33:02 51°16.312 2°44.892 7.1 278 15.9 101930 41
2009-09-07 07:33:07 51°16.322 2°44.873 9.2 255 15.9 101930 41
2009-09-07 07:33:11 51°16.331 2°44.857 8.1 278 15.9 101930 41
2009-09-07 07:33:15 51°16.339 2°44.842 7.7 246 15.9 101930 41
2009-09-07 07:33:22 51°16.354 2°44.814 8 279 15.9 101930 41
2009-09-07 07:33:27 51°16.364 2°44.794 9.8 250 15.9 101940 41
2009-09-07 07:33:31 51°16.372 2°44.778 9.5 280 15.9 101940 41
2009-09-07 07:33:36 51°16.383 2°44.758 8.1 249 15.9 101930 42
2009-09-07 07:33:42 51°16.395 2°44.734 8.3 281 15.9 101930 42
2009-09-07 07:33:47 51°16.405 2°44.714 7.2 246 15.9 101940 42
2009-09-07 07:33:51 51°16.414 2°44.698 8.3 282 15.9 101940 42
2009-09-07 07:33:57 51°16.426 2°44.674 8.4 252 15.9 101940 42
2009-09-07 07:34:02 51°16.437 2°44.654 8.5 281 15.9 101940 42
2009-09-07 07:34:06 51°16.445 2°44.638 7.8 248 15.9 101930 42
2009-09-07 07:34:12 51°16.458 2°44.614 8.2 286 15.9 101930 42
2009-09-07 07:34:16 51°16.467 2°44.599 9.3 253 15.9 101940 42
2009-09-07 07:34:22 51°16.48 2°44.576 7.8 279 15.9 101940 42
2009-09-07 07:34:26 51°16.489 2°44.561 7.5 255 15.9 101930 42
2009-09-07 07:34:31 51°16.5 2°44.542 7.5 285 15.9 101930 42
2009-09-07 07:34:36 51°16.512 2°44.524 7.8 251 15.9 101940 40
2009-09-07 07:34:42 51°16.525 2°44.502 6.8 280 15.9 101940 40
2009-09-07 07:34:47 51°16.537 2°44.483 8.3 251 15.9 101940 41
2009-09-07 07:34:51 51°16.546 2°44.468 7.9 279 15.9 101940 41
2009-09-07 07:34:57 51°16.559 2°44.446 7.8 252 15.9 101940 43
2009-09-07 07:35:02 51°16.571 2°44.427 6.8 283 15.9 101940 43
2009-09-07 07:35:06 51°16.58 2°44.412 7 252 16 101940 43
2009-09-07 07:35:11 51°16.591 2°44.394 7.1 279 16 101940 43
2009-09-07 07:35:17 51°16.605 2°44.372 6.6 250 16 101940 42
2009-09-07 07:35:22 51°16.617 2°44.354 7.1 279 16 101940 42
2009-09-07 07:35:27 51°16.628 2°44.335 6.7 244 16 101940 42
2009-09-07 07:35:31 51°16.637 2°44.321 8.2 284 16 101940 42
2009-09-07 07:35:36 51°16.649 2°44.303 7.7 253 16 101940 41
2009-09-07 07:35:42 51°16.663 2°44.281 8.2 280 16 101940 41
2009-09-07 07:35:47 51°16.675 2°44.263 8.4 254 16 101940 43
2009-09-07 07:35:51 51°16.685 2°44.249 9.6 281 16 101940 43
2009-09-07 07:35:56 51°16.697 2°44.232 7.6 251 16 101940 41
2009-09-07 07:36:02 51°16.711 2°44.212 7.9 284 16 101940 41
2009-09-07 07:36:06 51°16.721 2°44.198 8.2 251 16 101940 42
2009-09-07 07:36:11 51°16.733 2°44.181 9 284 16 101940 42
2009-09-07 07:36:16 51°16.745 2°44.164 8.4 254 16 101940 41
2009-09-07 07:36:21 51°16.758 2°44.147 8.5 285 16 101940 41
2009-09-07 07:36:27 51°16.772 2°44.127 8.2 251 16 101940 42
2009-09-07 07:36:31 51°16.782 2°44.114 9.7 281 16 101940 42
2009-09-07 07:36:37 51°16.797 2°44.094 7.7 252 16 101940 42
2009-09-07 07:36:42 51°16.809 2°44.076 7.2 283 16 101940 42
2009-09-07 07:36:46 51°16.819 2°44.063 7.6 248 16.1 101950 42
2009-09-07 07:36:51 51°16.83 2°44.045 6.7 283 16.1 101950 42
2009-09-07 07:36:57 51°16.845 2°44.025 7.8 254 16 101940 41
2009-09-07 07:37:02 51°16.857 2°44.008 8.6 280 16 101940 41
2009-09-07 07:37:07 51°16.869 2°43.991 8.2 257 16.1 101940 42
2009-09-07 07:37:11 51°16.879 2°43.978 7.8 284 16.1 101940 42
2009-09-07 07:37:16 51°16.892 2°43.961 8.4 257 16.1 101940 40
2009-09-07 07:37:22 51°16.906 2°43.94 7.1 278 16.1 101940 40
2009-09-07 07:37:26 51°16.916 2°43.927 7.7 253 16.1 101940 42
2009-09-07 07:37:31 51°16.928 2°43.91 6.3 279 16.1 101940 42
2009-09-07 07:37:36 51°16.941 2°43.893 7.7 251 16.1 101940 42
2009-09-07 07:37:42 51°16.955 2°43.873 7.6 286 16.1 101940 42
2009-09-07 07:37:47 51°16.968 2°43.856 8.2 251 16.1 101950 42
2009-09-07 07:37:51 51°16.977 2°43.842 8.1 280 16.1 101950 42
2009-09-07 07:37:56 51°16.99 2°43.825 6.5 254 16.1 101940 42
2009-09-07 07:38:02 51°17.004 2°43.805 7.3 281 16.1 101940 42
2009-09-07 07:38:07 51°17.017 2°43.788 8.1 253 16.1 101940 41
2009-09-07 07:38:11 51°17.026 2°43.774 6.3 278 16.1 101940 41
2009-09-07 07:38:15 51°17.036 2°43.761 7.9 247 16.1 101940 42
2009-09-07 07:38:21 51°17.051 2°43.74 8.3 279 16.1 101940 42
2009-09-07 07:38:27 51°17.066 2°43.719 7.4 250 16.1 101950 41
2009-09-07 07:38:31 51°17.075 2°43.705 7.7 285 16.1 101950 41
2009-09-07 07:38:37 51°17.09 2°43.684 9.5 252 16.1 101940 41
2009-09-07 07:38:42 51°17.102 2°43.667 8.1 278 16.1 101940 41
2009-09-07 07:38:46 51°17.112 2°43.653 8.6 256 16.1 101940 42
2009-09-07 07:38:52 51°17.127 2°43.632 7.4 284 16.1 101940 42
2009-09-07 07:38:56 51°17.137 2°43.62 6.3 248 16.1 101940 41
2009-09-07 07:39:02 51°17.152 2°43.6 7.5 286 16.1 101940 41
2009-09-07 07:39:06 51°17.162 2°43.587 8 250 16.1 101950 41
2009-09-07 07:39:11 51°17.175 2°43.572 7.2 285 16.1 101950 41
2009-09-07 07:39:17 51°17.191 2°43.553 8.2 257 16.1 101950 41
2009-09-07 07:39:22 51°17.204 2°43.538 7.1 283 16.1 101950 41
2009-09-07 07:39:27 51°17.218 2°43.525 6.2 258 16.2 101950 42
2009-09-07 07:39:31 51°17.228 2°43.513 5.8 285 16.2 101950 42
2009-09-07 07:39:37 51°17.245 2°43.498 6.4 258 16.2 101950 41
2009-09-07 07:39:42 51°17.259 2°43.485 5.9 280 16.2 101950 41
2009-09-07 07:39:47 51°17.273 2°43.473 5.5 260 16.2 101950 42
2009-09-07 07:39:51 51°17.284 2°43.463 6.3 285 16.2 101950 42
2009-09-07 07:39:55 51°17.295 2°43.453 5.1 249 16.2 101950 41
2009-09-07 07:40:02 51°17.315 2°43.437 4.9 280 16.2 101950 41
2009-09-07 07:40:07 51°17.329 2°43.425 4.3 259 16.2 101950 41
2009-09-07 07:40:11 51°17.341 2°43.416 4.4 285 16.2 101950 41
2009-09-07 07:40:16 51°17.355 2°43.404 4.8 255 16.2 101950 42
2009-09-07 07:40:21 51°17.37 2°43.393 7 285 16.2 101950 42
2009-09-07 07:40:27 51°17.386 2°43.378 5.2 259 16.2 101950 42
2009-09-07 07:40:31 51°17.398 2°43.37 6.2 280 16.2 101950 42
2009-09-07 07:40:36 51°17.412 2°43.358 5.4 259 16.2 101950 42
2009-09-07 07:40:42 51°17.43 2°43.345 5.7 278 16.2 101950 42
2009-09-07 07:40:47 51°17.444 2°43.332 4.1 262 16.2 101950 41
2009-09-07 07:40:51 51°17.455 2°43.323 5.6 285 16.2 101950 41
2009-09-07 07:40:56 51°17.469 2°43.311 6.1 256 16.2 101950 42
2009-09-07 07:41:01 51°17.484 2°43.299 4.3 285 16.2 101950 42
2009-09-07 07:41:07 51°17.501 2°43.285 5.8 258 16.3 101950 42
2009-09-07 07:41:11 51°17.513 2°43.275 6.2 284 16.3 101950 42
2009-09-07 07:41:17 51°17.53 2°43.261 5.3 260 16.3 101960 41
2009-09-07 07:41:22 51°17.544 2°43.249 6.5 278 16.3 101960 41
2009-09-07 07:41:26 51°17.556 2°43.239 5.5 256 16.3 101960 42
2009-09-07 07:41:31 51°17.57 2°43.228 5.8 279 16.3 101960 42
2009-09-07 07:41:37 51°17.588 2°43.213 7.2 257 16.3 101950 42
2009-09-07 07:41:42 51°17.602 2°43.201 5.7 279 16.3 101950 42
2009-09-07 07:41:46 51°17.613 2°43.192 7.3 255 16.3 101960 41
2009-09-07 07:41:51 51°17.627 2°43.179 5.6 284 16.3 101960 41
2009-09-07 07:41:57 51°17.645 2°43.165 6.7 259 16.3 101950 42
2009-09-07 07:42:02 51°17.658 2°43.15 5.8 280 16.3 101950 42
2009-09-07 07:42:07 51°17.672 2°43.136 6 254 16.3 101950 42
2009-09-07 07:42:11 51°17.683 2°43.123 6.8 280 16.3 101950 42
2009-09-07 07:42:16 51°17.696 2°43.106 6.7 251 16.3 101950 42
2009-09-07 07:42:22 51°17.711 2°43.085 8.8 279 16.3 101950 42
2009-09-07 07:42:26 51°17.721 2°43.071 6.5 248 16.3 101950 41
2009-09-07 07:42:31 51°17.733 2°43.053 7.6 277 16.3 101950 41
2009-09-07 07:42:36 51°17.746 2°43.034 8.5 250 16.3 101950 40
2009-09-07 07:42:41 51°17.758 2°43.015 7.7 285 16.3 101950 40
2009-09-07 07:42:47 51°17.772 2°42.992 8.3 250 16.3 101940 41
2009-09-07 07:42:51 51°17.781 2°42.976 7.5 285 16.3 101940 41
2009-09-07 07:42:56 51°17.793 2°42.956 8.9 251 16.4 101950 42
2009-09-07 07:43:01 51°17.804 2°42.936 7.4 278 16.4 101950 42
2009-09-07 07:43:07 51°17.818 2°42.913 9.6 248 16.4 101940 41
2009-09-07 07:43:11 51°17.826 2°42.897 8.5 285 16.4 101940 41
2009-09-07 07:43:17 51°17.84 2°42.873 9.1 248 16.3 101940 42
2009-09-07 07:43:22 51°17.851 2°42.852 8 284 16.3 101940 42
2009-09-07 07:43:26 51°17.859 2°42.835 8.6 22 16.3 101940 41
2009-09-07 07:43:31 51°17.869 2°42.814 9.7 280 16.3 101940 41
2009-09-07 07:43:37 51°17.88 2°42.788 9.8 247 16.4 101950 42
2009-09-07 07:43:42 51°17.89 2°42.766 9.3 286 16.4 101950 42
2009-09-07 07:43:47 51°17.899 2°42.744 9.3 20 16.4 101940 41
2009-09-07 07:43:51 51°17.907 2°42.727 7.9 279 16.4 101940 41
2009-09-07 07:43:56 51°17.915 2°42.704 8.2 27 16.4 101940 41
2009-09-07 07:44:02 51°17.926 2°42.677 9.1 279 16.4 101940 41
2009-09-07 07:44:06 51°17.933 2°42.659 8.9 249 16.4 101940 41
2009-09-07 07:44:11 51°17.942 2°42.636 8.7 283 16.4 101940 41
2009-09-07 07:44:17 51°17.952 2°42.609 9.4 246 16.4 101940 41
2009-09-07 07:44:22 51°17.961 2°42.586 9.5 283 16.4 101940 41
2009-09-07 07:44:27 51°17.97 2°42.564 8.8 20 16.4 101930 41
2009-09-07 07:44:31 51°17.977 2°42.546 9.7 282 16.4 101930 41
2009-09-07 07:44:35 51°17.984 2°42.527 8.5 248 16.4 101930 42
2009-09-07 07:44:42 51°17.997 2°42.496 9.7 283 16.4 101930 42
2009-09-07 07:44:47 51°18.005 2°42.473 10 245 16.4 101940 41
2009-09-07 07:44:51 51°18.012 2°42.455 10 287 16.4 101940 41
2009-09-07 07:44:56 51°18.021 2°42.432 9.4 248 16.4 101930 41
2009-09-07 07:45:01 51°18.03 2°42.409 8.1 281 16.4 101930 41
2009-09-07 07:45:07 51°18.04 2°42.383 9.7 24 16.4 101930 42
2009-09-07 07:45:11 51°18.047 2°42.365 8.6 282 16.4 101930 42
2009-09-07 07:45:17 51°18.058 2°42.338 10 247 16.4 101930 41
2009-09-07 07:45:22 51°18.067 2°42.315 9.5 279 16.4 101930 41
2009-09-07 07:45:27 51°18.075 2°42.293 8.5 243 16.4 101940 42
2009-09-07 07:45:32 51°18.084 2°42.27 10 283 16.4 101940 42
2009-09-07 07:45:36 51°18.091 2°42.252 9.1 247 16.5 101940 42
2009-09-07 07:45:42 51°18.102 2°42.225 10.2 284 16.5 101940 42
2009-09-07 07:45:46 51°18.109 2°42.208 10.1 20 16.5 101940 42
2009-09-07 07:45:51 51°18.117 2°42.185 7.7 280 16.5 101940 42
2009-09-07 07:45:56 51°18.126 2°42.163 8.5 247 16.5 101930 42
2009-09-07 07:46:02 51°18.137 2°42.135 9.8 280 16.5 101930 42
2009-09-07 07:46:07 51°18.145 2°42.113 7.8 21 16.5 101940 42
2009-09-07 07:46:11 51°18.153 2°42.095 8.5 279 16.5 101940 42
2009-09-07 07:46:17 51°18.163 2°42.068 8.8 245 16.5 101940 41
2009-09-07 07:46:22 51°18.172 2°42.046 8.8 285 16.5 101940 41
2009-09-07 07:46:26 51°18.179 2°42.028 9.4 248 16.5 101940 42
2009-09-07 07:46:31 51°18.188 2°42.006 9.2 281 16.5 101940 42
2009-09-07 07:46:37 51°18.198 2°41.979 10.3 248 16.5 101940 41
2009-09-07 07:46:42 51°18.207 2°41.956 10.1 279 16.5 101940 41
2009-09-07 07:46:47 51°18.217 2°41.934 9.2 249 16.5 101930 42
2009-09-07 07:46:51 51°18.223 2°41.916 9.8 278 16.5 101930 42
2009-09-07 07:46:56 51°18.232 2°41.894 10 249 16.5 101940 41
2009-09-07 07:47:02 51°18.243 2°41.867 9.3 283 16.5 101940 41
2009-09-07 07:47:07 51°18.252 2°41.844 8.9 26 16.5 101940 41
2009-09-07 07:47:11 51°18.259 2°41.826 8.5 278 16.5 101940 41
2009-09-07 07:47:16 51°18.267 2°41.803 10.2 21 16.5 101940 41
2009-09-07 07:47:22 51°18.278 2°41.776 10.8 282 16.5 101940 41
2009-09-07 07:47:26 51°18.284 2°41.758 9.9 20 16.5 101940 42
2009-09-07 07:47:31 51°18.293 2°41.735 10.1 280 16.5 101940 42
2009-09-07 07:47:36 51°18.301 2°41.712 8.1 26 16.5 101940 41
2009-09-07 07:47:41 51°18.31 2°41.689 10.1 281 16.5 101940 41
2009-09-07 07:47:47 51°18.32 2°41.662 8.6 246 16.5 101930 41
2009-09-07 07:47:51 51°18.327 2°41.644 9 283 16.5 101930 41
2009-09-07 07:47:56 51°18.335 2°41.621 9.6 245 16.6 101930 41
2009-09-07 07:48:01 51°18.344 2°41.598 9.6 283 16.6 101930 41
2009-09-07 07:48:07 51°18.354 2°41.571 8.7 248 16.6 101930 41
2009-09-07 07:48:11 51°18.361 2°41.553 10.1 285 16.6 101930 41
2009-09-07 07:48:17 51°18.372 2°41.527 10.7 21 16.6 101940 42
2009-09-07 07:48:22 51°18.381 2°41.505 8.7 285 16.6 101940 42
2009-09-07 07:48:26 51°18.388 2°41.487 10 249 16.6 101930 41
2009-09-07 07:48:31 51°18.397 2°41.465 10.8 280 16.6 101930 41
2009-09-07 07:48:37 51°18.408 2°41.438 10.2 247 16.6 101930 42
2009-09-07 07:48:42 51°18.417 2°41.416 9.9 281 16.6 101930 42
2009-09-07 07:48:47 51°18.426 2°41.394 10.4 249 16.6 101930 42
2009-09-07 07:48:51 51°18.433 2°41.376 10.4 286 16.6 101930 42
2009-09-07 07:48:56 51°18.443 2°41.354 8.6 250 16.6 101940 42
2009-09-07 07:49:02 51°18.453 2°41.327 7.8 280 16.6 101940 42
2009-09-07 07:49:06 51°18.461 2°41.31 9.3 250 16.6 101940 41
2009-09-07 07:49:11 51°18.471 2°41.288 9.8 278 16.6 101940 41
2009-09-07 07:49:16 51°18.479 2°41.265 9 23 16.6 101930 41
2009-09-07 07:49:22 51°18.49 2°41.238 8.8 279 16.6 101930 41
2009-09-07 07:49:27 51°18.499 2°41.216 8.1 21 16.6 101940 41
2009-09-07 07:49:31 51°18.507 2°41.198 9.7 285 16.6 101940 41
2009-09-07 07:49:35 51°18.514 2°41.18 8.5 246 16.6 101930 42
2009-09-07 07:49:42 51°18.527 2°41.149 9.4 281 16.6 101930 42
2009-09-07 07:49:47 51°18.536 2°41.127 8.9 250 16.6 101930 42
2009-09-07 07:49:51 51°18.543 2°41.109 9.1 283 16.6 101930 42
2009-09-07 07:49:57 51°18.554 2°41.082 8.4 245 16.6 101930 42
2009-09-07 07:50:02 51°18.563 2°41.06 8.9 281 16.6 101930 42
2009-09-07 07:50:06 51°18.571 2°41.042 10.5 248 16.6 101930 41
2009-09-07 07:50:11 51°18.58 2°41.02 9.1 282 16.6 101930 41
2009-09-07 07:50:17 51°18.591 2°40.992 9.5 248 16.6 101930 41
2009-09-07 07:50:22 51°18.6 2°40.97 8.2 281 16.6 101930 41
2009-09-07 07:50:27 51°18.609 2°40.948 9.5 21 16.6 101930 42
2009-09-07 07:50:31 51°18.617 2°40.929 9.9 282 16.6 101930 42
2009-09-07 07:50:36 51°18.626 2°40.907 10 247 16.6 101940 40
2009-09-07 07:50:42 51°18.637 2°40.88 8.8 281 16.6 101940 40
2009-09-07 07:50:46 51°18.645 2°40.862 9 248 16.6 101930 42
2009-09-07 07:50:51 51°18.654 2°40.839 10.2 283 16.6 101930 42
2009-09-07 07:50:57 51°18.665 2°40.812 9 247 16.7 101930 41
2009-09-07 07:51:02 51°18.675 2°40.789 10.1 284 16.7 101930 41
2009-09-07 07:51:06 51°18.682 2°40.771 9.2 248 16.7 101930 42
2009-09-07 07:51:11 51°18.692 2°40.748 10.1 280 16.7 101930 42
2009-09-07 07:51:16 51°18.702 2°40.726 9.8 250 16.7 101930 41
2009-09-07 07:51:22 51°18.713 2°40.699 8.9 286 16.7 101930 41
2009-09-07 07:51:27 51°18.722 2°40.676 8.7 247 16.7 101930 41
2009-09-07 07:51:31 51°18.73 2°40.658 8.1 283 16.7 101930 41
2009-09-07 07:51:36 51°18.739 2°40.636 10.2 251 16.7 101930 41
2009-09-07 07:51:41 51°18.748 2°40.613 7.8 279 16.7 101930 41
2009-09-07 07:51:47 51°18.76 2°40.586 9 248 16.7 101940 42
2009-09-07 07:51:51 51°18.767 2°40.568 7.8 282 16.7 101940 42
2009-09-07 07:51:56 51°18.776 2°40.544 8.6 246 16.7 101930 42
2009-09-07 07:52:02 51°18.787 2°40.516 7.6 277 16.7 101930 42
2009-09-07 07:52:07 51°18.796 2°40.493 9.3 245 16.7 101940 41
2009-09-07 07:52:11 51°18.804 2°40.475 9.2 285 16.7 101940 41
2009-09-07 07:52:16 51°18.814 2°40.452 8 245 16.7 101930 41
2009-09-07 07:52:21 51°18.824 2°40.43 8.3 280 16.7 101930 41
2009-09-07 07:52:26 51°18.833 2°40.407 9.1 245 16.7 101930 41
2009-09-07 07:52:31 51°18.842 2°40.384 9.5 281 16.7 101930 41
2009-09-07 07:52:37 51°18.853 2°40.357 10.6 246 16.7 101940 42
2009-09-07 07:52:41 51°18.861 2°40.338 11 283 16.7 101940 42
2009-09-07 07:52:46 51°18.87 2°40.316 11.6 248 16.8 101930 41
2009-09-07 07:52:51 51°18.879 2°40.293 9.4 280 16.8 101930 41
2009-09-07 07:52:57 51°18.89 2°40.265 9.4 245 16.8 101930 42
2009-09-07 07:53:02 51°18.899 2°40.243 9.5 281 16.8 101930 42
2009-09-07 07:53:06 51°18.906 2°40.225 9.7 247 16.8 101920 42
2009-09-07 07:53:11 51°18.916 2°40.203 9.3 281 16.8 101920 42
2009-09-07 07:53:17 51°18.927 2°40.176 10.5 248 16.8 101940 40
2009-09-07 07:53:22 51°18.937 2°40.154 8.9 280 16.8 101940 40
2009-09-07 07:53:27 51°18.946 2°40.131 9.9 246 16.8 101930 42
2009-09-07 07:53:31 51°18.954 2°40.114 10.2 283 16.8 101930 42
2009-09-07 07:53:37 51°18.964 2°40.087 10.1 245 16.8 101920 41
2009-09-07 07:53:42 51°18.974 2°40.064 9 283 16.8 101920 41
2009-09-07 07:53:47 51°18.983 2°40.042 9.4 247 16.8 101930 42
2009-09-07 07:53:51 51°18.99 2°40.024 8.9 284 16.8 101930 42
2009-09-07 07:53:56 51°19 2°40.002 9.7 246 16.8 101930 42
2009-09-07 07:54:02 51°19.01 2°39.975 9.1 280 16.8 101930 42
2009-09-07 07:54:07 51°19.019 2°39.952 9.9 249 16.8 101930 41
2009-09-07 07:54:11 51°19.027 2°39.934 9.3 284 16.8 101930 41
2009-09-07 07:54:16 51°19.036 2°39.912 7.3 245 16.8 101930 41
2009-09-07 07:54:21 51°19.045 2°39.89 9.8 279 16.8 101930 41
2009-09-07 07:54:26 51°19.054 2°39.868 11.3 251 16.8 101930 41
2009-09-07 07:54:31 51°19.064 2°39.846 10.2 284 16.8 101930 41
2009-09-07 07:54:37 51°19.075 2°39.819 8.2 247 16.7 101930 41
2009-09-07 07:54:41 51°19.082 2°39.801 10.5 284 16.7 101930 41
2009-09-07 07:54:46 51°19.091 2°39.779 8.3 244 16.8 101930 41
2009-09-07 07:54:51 51°19.1 2°39.757 9 284 16.8 101930 41
2009-09-07 07:54:57 51°19.111 2°39.73 9.1 246 16.8 101940 41
2009-09-07 07:55:02 51°19.12 2°39.708 9.2 283 16.8 101940 41
2009-09-07 07:55:06 51°19.127 2°39.69 10.2 249 16.8 101920 41
2009-09-07 07:55:11 51°19.137 2°39.668 10.9 285 16.8 101920 41
2009-09-07 07:55:17 51°19.148 2°39.642 9.5 244 16.8 101930 41
2009-09-07 07:55:22 51°19.157 2°39.62 9.6 278 16.8 101930 41
2009-09-07 07:55:26 51°19.164 2°39.602 8.8 248 16.8 101930 42
2009-09-07 07:55:31 51°19.173 2°39.58 8.6 280 16.8 101930 42
2009-09-07 07:55:37 51°19.184 2°39.553 8.7 248 16.8 101930 41
2009-09-07 07:55:42 51°19.193 2°39.531 10.5 281 16.8 101930 41
2009-09-07 07:55:47 51°19.201 2°39.508 10 247 16.8 101930 41
2009-09-07 07:55:51 51°19.207 2°39.489 8.6 279 16.8 101930 41
2009-09-07 07:55:56 51°19.216 2°39.466 8.8 242 16.7 101930 39
2009-09-07 07:56:02 51°19.224 2°39.437 9.4 279 16.7 101930 39
2009-09-07 07:56:07 51°19.231 2°39.414 10.3 243 16.8 101930 41
2009-09-07 07:56:11 51°19.237 2°39.394 11.5 282 16.8 101930 41
2009-09-07 07:56:16 51°19.243 2°39.37 12.1 244 16.8 101930 42
2009-09-07 07:56:22 51°19.251 2°39.341 12.5 279 16.8 101930 42
2009-09-07 07:56:27 51°19.258 2°39.317 12.3 245 16.8 101920 41
2009-09-07 07:56:31 51°19.264 2°39.297 10.9 279 16.8 101920 41
2009-09-07 07:56:36 51°19.27 2°39.272 9.6 244 16.8 101920 41
2009-09-07 07:56:41 51°19.277 2°39.248 9.8 280 16.8 101920 41
2009-09-07 07:56:46 51°19.283 2°39.223 9.7 243 16.8 101920 41
2009-09-07 07:56:51 51°19.29 2°39.198 10.8 278 16.8 101920 41
2009-09-07 07:56:57 51°19.297 2°39.169 11 242 16.8 101930 41
2009-09-07 07:57:01 51°19.302 2°39.149 10.4 280 16.8 101930 41
2009-09-07 07:57:06 51°19.308 2°39.124 11.9 243 16.8 101920 42
2009-09-07 07:57:11 51°19.315 2°39.099 9.7 285 16.8 101920 42
2009-09-07 07:57:17 51°19.323 2°39.07 10 243 16.8 101910 42
2009-09-07 07:57:22 51°19.329 2°39.045 11.7 281 16.8 101910 42
2009-09-07 07:57:26 51°19.334 2°39.026 11.4 245 16.8 101920 41
2009-09-07 07:57:31 51°19.341 2°39.001 10 279 16.8 101920 41
2009-09-07 07:57:37 51°19.348 2°38.971 11 245 16.8 101920 42
2009-09-07 07:57:42 51°19.354 2°38.946 11.1 280 16.8 101920 42
2009-09-07 07:57:47 51°19.36 2°38.921 11.4 244 16.8 101910 41
2009-09-07 07:57:51 51°19.365 2°38.901 9.2 283 16.8 101910 41
2009-09-07 07:57:56 51°19.372 2°38.876 10 244 16.8 101910 41
2009-09-07 07:58:02 51°19.379 2°38.846 11.9 284 16.8 101910 41
2009-09-07 07:58:07 51°19.386 2°38.821 10.1 245 16.8 101920 41
2009-09-07 07:58:11 51°19.391 2°38.802 11.1 283 16.8 101920 41
2009-09-07 07:58:16 51°19.398 2°38.777 11.5 246 16.8 101910 41
2009-09-07 07:58:22 51°19.406 2°38.747 9.3 279 16.8 101910 41
2009-09-07 07:58:27 51°19.412 2°38.723 10.9 245 16.8 101920 41
2009-09-07 07:58:31 51°19.417 2°38.703 9.8 280 16.8 101920 41
2009-09-07 07:58:36 51°19.424 2°38.678 9.8 244 16.8 101910 40
2009-09-07 07:58:41 51°19.43 2°38.653 11.4 286 16.8 101910 40
2009-09-07 07:58:47 51°19.438 2°38.623 10.3 242 16.8 101910 42
2009-09-07 07:58:51 51°19.443 2°38.603 11.7 286 16.8 101910 42
2009-09-07 07:58:57 51°19.451 2°38.573 11.8 244 16.8 101910 42
2009-09-07 07:59:01 51°19.457 2°38.554 9.9 280 16.8 101910 42
2009-09-07 07:59:06 51°19.463 2°38.529 11.4 245 16.8 101920 41
2009-09-07 07:59:11 51°19.47 2°38.505 9.7 278 16.8 101920 41
2009-09-07 07:59:17 51°19.478 2°38.475 10.4 244 16.8 101910 42
2009-09-07 07:59:22 51°19.485 2°38.45 10.9 284 16.8 101910 42
2009-09-07 07:59:26 51°19.49 2°38.43 9.9 243 16.8 101910 42
2009-09-07 07:59:31 51°19.497 2°38.406 10.3 282 16.8 101910 42
2009-09-07 07:59:37 51°19.505 2°38.376 11.4 243 16.8 101910 41
2009-09-07 07:59:42 51°19.511 2°38.35 12.1 279 16.8 101910 41
2009-09-07 07:59:46 51°19.516 2°38.33 9.9 245 16.8 101920 42
2009-09-07 07:59:51 51°19.523 2°38.305 11.5 281 16.8 101920 42
2009-09-07 07:59:57 51°19.531 2°38.275 11.3 244 16.8 101910 41
2009-09-07 08:00:02 51°19.537 2°38.25 11.2 280 16.8 101910 41
2009-09-07 08:00:06 51°19.542 2°38.23 11.4 245 16.8 101910 41
2009-09-07 08:00:11 51°19.549 2°38.205 11.4 277 16.8 101910 41
2009-09-07 08:00:16 51°19.555 2°38.18 10.8 25 16.8 101920 41
2009-09-07 08:00:22 51°19.563 2°38.149 10.7 279 16.8 101920 41
2009-09-07 08:00:26 51°19.569 2°38.129 12 244 16.8 101910 42
2009-09-07 08:00:31 51°19.575 2°38.104 9.6 280 16.8 101910 42
2009-09-07 08:00:36 51°19.582 2°38.079 11.6 246 16.8 101910 41
2009-09-07 08:00:42 51°19.59 2°38.049 10.9 279 16.8 101910 41
2009-09-07 08:00:47 51°19.597 2°38.025 9.3 243 16.8 101910 41
2009-09-07 08:00:51 51°19.602 2°38.004 9.5 282 16.8 101910 41
2009-09-07 08:00:56 51°19.609 2°37.98 10.7 245 16.8 101910 42
2009-09-07 08:01:01 51°19.615 2°37.955 9.6 284 16.8 101910 42
2009-09-07 08:01:07 51°19.623 2°37.925 10.8 243 16.8 101920 41
2009-09-07 08:01:11 51°19.629 2°37.905 9.4 283 16.8 101920 41
2009-09-07 08:01:17 51°19.636 2°37.874 9.1 245 16.8 101910 40
2009-09-07 08:01:21 51°19.642 2°37.854 11.8 281 16.8 101910 40
2009-09-07 08:01:26 51°19.648 2°37.829 8.9 244 16.8 101910 41
2009-09-07 08:01:31 51°19.655 2°37.804 8.5 284 16.8 101910 41
2009-09-07 08:01:37 51°19.663 2°37.774 11.6 243 16.8 101920 41
2009-09-07 08:01:42 51°19.67 2°37.749 10.5 284 16.8 101920 41
2009-09-07 08:01:46 51°19.675 2°37.729 11.7 244 16.8 101900 42
2009-09-07 08:01:51 51°19.681 2°37.704 10.1 282 16.8 101900 42
2009-09-07 08:01:57 51°19.689 2°37.674 12.2 243 16.8 101920 42
2009-09-07 08:02:01 51°19.694 2°37.654 11.9 286 16.8 101920 42
2009-09-07 08:02:07 51°19.702 2°37.624 11.8 247 16.8 101910 41
2009-09-07 08:02:11 51°19.707 2°37.605 8.1 286 16.8 101910 41
2009-09-07 08:02:17 51°19.717 2°37.576 8.6 249 16.8 101920 42
2009-09-07 08:02:22 51°19.724 2°37.553 8.2 280 16.8 101920 42
2009-09-07 08:02:26 51°19.731 2°37.534 9.2 247 16.8 101920 40
2009-09-07 08:02:31 51°19.739 2°37.511 9.8 280 16.8 101920 40
2009-09-07 08:02:36 51°19.748 2°37.488 10.5 251 16.8 101940 42
2009-09-07 08:02:42 51°19.759 2°37.462 11.9 278 16.8 101940 42
2009-09-07 08:02:47 51°19.767 2°37.44 9.9 248 16.8 101930 41
2009-09-07 08:02:51 51°19.775 2°37.422 7.8 279 16.8 101930 41
2009-09-07 08:02:56 51°19.783 2°37.399 8.1 248 16.8 101920 42
2009-09-07 08:03:01 51°19.792 2°37.377 8.9 286 16.8 101920 42
2009-09-07 08:03:07 51°19.803 2°37.351 8.2 248 16.8 101910 42
2009-09-07 08:03:11 51°19.811 2°37.333 7.9 279 16.8 101910 42
2009-09-07 08:03:16 51°19.82 2°37.31 7.9 248 16.8 101920 42
2009-09-07 08:03:21 51°19.829 2°37.288 8.1 283 16.8 101920 42
2009-09-07 08:03:27 51°19.84 2°37.261 10.1 248 16.8 101920 42
2009-09-07 08:03:31 51°19.847 2°37.244 9.1 283 16.8 101920 42
2009-09-07 08:03:37 51°19.858 2°37.217 10.6 247 16.8 101920 41
2009-09-07 08:03:41 51°19.866 2°37.199 8 279 16.8 101920 41
2009-09-07 08:03:46 51°19.875 2°37.177 8.3 248 16.8 101920 42
2009-09-07 08:03:51 51°19.884 2°37.155 8.6 281 16.8 101920 42
2009-09-07 08:03:57 51°19.895 2°37.128 8.9 249 16.8 101920 40
2009-09-07 08:04:01 51°19.903 2°37.11 10.1 281 16.8 101920 40
2009-09-07 08:04:07 51°19.914 2°37.084 10.2 248 16.8 101920 41
2009-09-07 08:04:11 51°19.922 2°37.066 9.7 280 16.8 101920 41
2009-09-07 08:04:17 51°19.932 2°37.04 7.7 248 16.8 101920 41
2009-09-07 08:04:22 51°19.942 2°37.017 7.8 281 16.8 101920 41
2009-09-07 08:04:26 51°19.949 2°36.999 8.6 249 16.9 101930 41
2009-09-07 08:04:31 51°19.958 2°36.977 8.1 285 16.9 101930 41
2009-09-07 08:04:37 51°19.969 2°36.95 8.2 245 16.8 101920 42
2009-09-07 08:04:42 51°19.978 2°36.928 10.5 279 16.8 101920 42
2009-09-07 08:04:47 51°19.987 2°36.906 8.7 247 16.9 101920 42
2009-09-07 08:04:51 51°19.994 2°36.888 8.7 281 16.9 101920 42
2009-09-07 08:04:56 51°20.003 2°36.865 8.5 247 16.9 101920 42
2009-09-07 08:05:02 51°20.014 2°36.838 9.2 284 16.9 101920 42
2009-09-07 08:05:07 51°20.023 2°36.816 9.6 248 16.9 101920 42
2009-09-07 08:05:11 51°20.03 2°36.798 10.6 282 16.9 101920 42
2009-09-07 08:05:16 51°20.039 2°36.775 9 247 16.9 101920 41
2009-09-07 08:05:21 51°20.048 2°36.753 10.1 285 16.9 101920 41
2009-09-07 08:05:27 51°20.059 2°36.726 7.8 250 16.9 101920 41
2009-09-07 08:05:31 51°20.066 2°36.708 8.4 280 16.9 101920 41
2009-09-07 08:05:36 51°20.075 2°36.686 8.4 249 16.9 101920 41
2009-09-07 08:05:41 51°20.084 2°36.663 7.6 280 16.9 101920 41
2009-09-07 08:05:47 51°20.095 2°36.637 8.2 245 16.9 101920 41
2009-09-07 08:05:51 51°20.103 2°36.619 9.2 282 16.9 101920 41
2009-09-07 08:05:57 51°20.114 2°36.592 8.2 247 16.9 101920 42
2009-09-07 08:06:01 51°20.121 2°36.575 10.6 283 16.9 101920 42
2009-09-07 08:06:06 51°20.13 2°36.552 7.9 249 16.9 101920 42
2009-09-07 08:06:11 51°20.139 2°36.53 8.6 281 16.9 101920 42
2009-09-07 08:06:17 51°20.149 2°36.503 8.4 250 16.9 101920 41
2009-09-07 08:06:22 51°20.158 2°36.481 9.8 283 16.9 101920 41
2009-09-07 08:06:26 51°20.165 2°36.463 7.7 251 16.9 101920 41
2009-09-07 08:06:31 51°20.174 2°36.441 8.6 282 16.9 101920 41
2009-09-07 08:06:37 51°20.185 2°36.414 8 249 16.9 101920 40
2009-09-07 08:06:42 51°20.193 2°36.391 8.8 283 16.9 101920 40
2009-09-07 08:06:46 51°20.201 2°36.373 9.1 245 16.9 101920 41
2009-09-07 08:06:51 51°20.209 2°36.351 9.1 282 16.9 101920 41
2009-09-07 08:06:57 51°20.22 2°36.323 11.2 248 16.9 101920 41
2009-09-07 08:07:02 51°20.229 2°36.301 10.6 281 16.9 101920 41
2009-09-07 08:07:07 51°20.238 2°36.279 10 248 16.9 101910 42
2009-09-07 08:07:11 51°20.244 2°36.26 8.5 278 16.9 101910 42
2009-09-07 08:07:16 51°20.253 2°36.238 10.7 250 16.9 101920 42
2009-09-07 08:07:22 51°20.264 2°36.21 10.4 283 16.9 101920 42
2009-09-07 08:07:27 51°20.272 2°36.188 9.2 248 16.9 101930 41
2009-09-07 08:07:31 51°20.279 2°36.169 8.5 279 16.9 101930 41
2009-09-07 08:07:36 51°20.287 2°36.146 10.1 250 16.9 101920 42
2009-09-07 08:07:41 51°20.296 2°36.124 11 279 16.9 101920 42
2009-09-07 08:07:47 51°20.307 2°36.097 11.4 249 16.9 101930 41
2009-09-07 08:07:51 51°20.314 2°36.079 9 282 16.9 101930 41
2009-09-07 08:07:56 51°20.322 2°36.056 10.6 249 16.9 101930 42
2009-09-07 08:08:01 51°20.331 2°36.033 8.1 284 16.9 101930 42
2009-09-07 08:08:07 51°20.342 2°36.006 9.2 247 16.9 101920 41
2009-09-07 08:08:11 51°20.349 2°35.988 10.9 284 16.9 101920 41
2009-09-07 08:08:17 51°20.36 2°35.961 8.8 249 16.9 101920 42
2009-09-07 08:08:21 51°20.367 2°35.943 8.8 284 16.9 101920 42
2009-09-07 08:08:26 51°20.376 2°35.92 9.4 249 16.9 101920 40
2009-09-07 08:08:31 51°20.385 2°35.898 8.5 279 16.9 101920 40
2009-09-07 08:08:37 51°20.396 2°35.87 10 249 16.9 101920 42
2009-09-07 08:08:42 51°20.404 2°35.848 8.4 281 16.9 101920 42
2009-09-07 08:08:46 51°20.412 2°35.829 8 247 16.9 101920 41
2009-09-07 08:08:51 51°20.42 2°35.807 9.3 279 16.9 101920 41
2009-09-07 08:08:57 51°20.431 2°35.779 8.5 249 16.9 101920 41
2009-09-07 08:09:02 51°20.44 2°35.757 9.8 285 16.9 101920 41
2009-09-07 08:09:07 51°20.449 2°35.734 9.8 247 16.9 101920 42
2009-09-07 08:09:11 51°20.456 2°35.716 9.9 285 16.9 101920 42
2009-09-07 08:09:17 51°20.467 2°35.689 9.1 249 16.9 101920 40
2009-09-07 08:09:22 51°20.476 2°35.666 8.8 280 16.9 101920 40
2009-09-07 08:09:27 51°20.484 2°35.643 8.8 247 17 101920 41
2009-09-07 08:09:31 51°20.491 2°35.624 8.4 280 17 101920 41
2009-09-07 08:09:36 51°20.5 2°35.601 7.7 246 16.9 101920 42
2009-09-07 08:09:42 51°20.511 2°35.574 9 280 16.9 101920 42
2009-09-07 08:09:47 51°20.52 2°35.551 8.9 246 17 101920 42
2009-09-07 08:09:51 51°20.526 2°35.532 8.3 282 17 101920 42
2009-09-07 08:09:56 51°20.535 2°35.509 8.1 247 17 101920 42
2009-09-07 08:10:01 51°20.544 2°35.486 7.8 284 17 101920 42
2009-09-07 08:10:07 51°20.554 2°35.458 10.3 250 17 101920 42
2009-09-07 08:10:11 51°20.562 2°35.44 8.7 283 17 101920 42
2009-09-07 08:10:17 51°20.572 2°35.412 8.9 245 17 101920 42
2009-09-07 08:10:21 51°20.579 2°35.394 8.9 280 17 101920 42
2009-09-07 08:10:27 51°20.59 2°35.367 9.4 244 17 101920 42
2009-09-07 08:10:31 51°20.597 2°35.348 8.2 286 17 101920 42
2009-09-07 08:10:37 51°20.607 2°35.321 10.1 245 17 101930 42
2009-09-07 08:10:42 51°20.616 2°35.298 9.2 284 17 101930 42
2009-09-07 08:10:46 51°20.623 2°35.28 8.7 247 17 101920 41
2009-09-07 08:10:51 51°20.632 2°35.257 8.5 281 17 101920 41
2009-09-07 08:10:57 51°20.642 2°35.229 8.8 245 17 101920 42
2009-09-07 08:11:02 51°20.651 2°35.206 11 283 17 101920 42
2009-09-07 08:11:06 51°20.658 2°35.188 9.6 247 17 101920 42
2009-09-07 08:11:11 51°20.666 2°35.165 8.9 281 17 101920 42
2009-09-07 08:11:17 51°20.676 2°35.138 9.6 248 17 101920 41
2009-09-07 08:11:22 51°20.685 2°35.115 9.5 277 17 101920 41
2009-09-07 08:11:27 51°20.694 2°35.092 9 246 17 101920 41
2009-09-07 08:11:31 51°20.7 2°35.073 9.4 279 17 101920 41
2009-09-07 08:11:37 51°20.711 2°35.046 8.8 243 17 101920 42
2009-09-07 08:11:42 51°20.72 2°35.023 10.5 285 17 101920 42
2009-09-07 08:11:47 51°20.728 2°35 9.1 246 17 101920 41
2009-09-07 08:11:51 51°20.735 2°34.981 8.1 279 17 101920 41
2009-09-07 08:11:56 51°20.743 2°34.958 9.5 248 17 101920 40
2009-09-07 08:12:02 51°20.753 2°34.93 10 283 17 101920 40
2009-09-07 08:12:07 51°20.761 2°34.907 8.4 243 17 101920 42
2009-09-07 08:12:11 51°20.768 2°34.889 9.8 282 17 101920 42
2009-09-07 08:12:16 51°20.776 2°34.866 9.9 247 16.9 101930 42
2009-09-07 08:12:21 51°20.785 2°34.843 8.6 279 16.9 101930 42
2009-09-07 08:12:27 51°20.795 2°34.816 8.2 245 17 101930 41
2009-09-07 08:12:31 51°20.802 2°34.798 9.6 281 17 101930 41
2009-09-07 08:12:37 51°20.812 2°34.77 8.2 244 17 101930 42